createdAt,value
2022-08-05T00:00:16.028Z,68.16
2022-08-05T00:00:50.112Z,69.17
2022-08-05T00:01:28.353Z,68.61
2022-08-05T00:02:07.569Z,68.93
2022-08-05T00:02:43.892Z,68.45
2022-08-05T00:03:22.550Z,69.12
2022-08-05T00:03:57.018Z,68.72
2022-08-05T00:04:28.839Z,68.66
2022-08-05T00:06:06.539Z,69.00
2022-08-05T00:06:40.535Z,69.13
2022-08-05T00:07:27.019Z,69.58
2022-08-05T00:08:03.639Z,70.14
2022-08-05T00:08:36.391Z,69.65
2022-08-05T00:09:12.975Z,69.64
2022-08-05T00:09:47.251Z,69.15
2022-08-05T00:10:19.342Z,69.01
2022-08-05T00:10:50.712Z,68.89
2022-08-05T00:11:49.023Z,69.47
2022-08-05T00:12:26.880Z,69.85
2022-08-05T00:12:58.257Z,69.64
2022-08-05T00:13:38.906Z,69.07
2022-08-05T00:14:12.887Z,69.35
2022-08-05T00:14:48.340Z,69.21
2022-08-05T00:15:56.074Z,68.81
2022-08-05T00:16:16.053Z,68.76
2022-08-05T00:16:52.885Z,69.00
2022-08-05T00:17:25.833Z,68.40
2022-08-05T00:17:57.224Z,68.18
2022-08-05T00:18:28.965Z,68.40
2022-08-05T00:19:00.400Z,69.19
2022-08-05T00:19:33.537Z,68.89
2022-08-05T00:20:15.328Z,68.58
2022-08-05T00:20:52.319Z,68.49
2022-08-05T00:21:24.181Z,68.70
2022-08-05T00:22:03.170Z,69.48
2022-08-05T00:22:36.570Z,69.25
2022-08-05T00:23:12.867Z,68.72
2022-08-05T00:23:53.639Z,69.94
2022-08-05T00:24:38.580Z,68.38
2022-08-05T00:25:14.031Z,69.40
2022-08-05T00:25:48.051Z,68.39
2022-08-05T00:26:25.468Z,69.12
2022-08-05T00:26:56.931Z,69.36
2022-08-05T00:27:36.479Z,68.79
2022-08-05T00:28:10.889Z,69.73
2022-08-05T00:28:45.929Z,68.85
2022-08-05T00:29:17.370Z,68.45
2022-08-05T00:29:49.612Z,69.10
2022-08-05T00:30:21.436Z,69.13
2022-08-05T00:31:04.314Z,69.60
2022-08-05T00:31:54.066Z,70.15
2022-08-05T00:32:27.787Z,69.72
2022-08-05T00:32:59.129Z,69.52
2022-08-05T00:34:55.374Z,69.92
2022-08-05T00:35:05.689Z,69.50
2022-08-05T00:35:33.611Z,69.69
2022-08-05T00:36:16.172Z,69.48
2022-08-05T00:37:12.996Z,68.98
2022-08-05T00:37:52.675Z,69.53
2022-08-05T00:38:28.960Z,69.47
2022-08-05T00:39:57.868Z,69.90
2022-08-05T00:40:30.306Z,69.35
2022-08-05T00:41:01.744Z,68.95
2022-08-05T00:41:51.763Z,69.39
2022-08-05T00:42:39.980Z,68.68
2022-08-05T00:43:11.325Z,68.91
2022-08-05T00:43:49.791Z,68.97
2022-08-05T00:44:21.439Z,68.93
2022-08-05T00:45:13.407Z,69.56
2022-08-05T00:45:45.712Z,69.37
2022-08-05T00:46:19.618Z,69.88
2022-08-05T00:47:26.227Z,69.30
2022-08-05T00:48:05.339Z,69.67
2022-08-05T00:48:50.855Z,69.59
2022-08-05T00:49:22.895Z,70.07
2022-08-05T00:49:54.268Z,69.19
2022-08-05T00:50:25.889Z,69.44
2022-08-05T00:50:57.331Z,69.80
2022-08-05T00:51:51.013Z,69.06
2022-08-05T00:52:28.248Z,69.50
2022-08-05T00:53:00.387Z,69.52
2022-08-05T00:53:59.895Z,69.40
2022-08-05T00:54:24.214Z,68.98
2022-08-05T00:54:59.657Z,68.35
2022-08-05T00:55:42.290Z,69.69
2022-08-05T00:56:22.895Z,69.18
2022-08-05T00:56:54.388Z,69.25
2022-08-05T00:57:31.759Z,69.00
2022-08-05T00:58:19.039Z,68.62
2022-08-05T00:59:44.459Z,68.69
2022-08-05T01:00:16.920Z,68.60
2022-08-05T01:00:50.357Z,69.51
2022-08-05T01:01:42.177Z,69.70
2022-08-05T01:02:13.248Z,69.33
2022-08-05T01:02:48.006Z,69.70
2022-08-05T01:03:23.170Z,70.03
2022-08-05T01:03:54.829Z,69.18
2022-08-05T01:04:26.774Z,69.74
2022-08-05T01:05:01.206Z,70.48
2022-08-05T01:05:36.556Z,69.09
2022-08-05T01:06:13.977Z,69.27
2022-08-05T01:06:48.611Z,69.33
2022-08-05T01:07:20.563Z,69.91
2022-08-05T01:08:41.598Z,69.68
2022-08-05T01:09:03.123Z,68.96
2022-08-05T01:09:34.612Z,69.09
2022-08-05T01:10:10.566Z,69.42
2022-08-05T01:10:52.558Z,69.37
2022-08-05T01:11:43.871Z,69.64
2022-08-05T01:13:19.441Z,69.45
2022-08-05T01:13:59.948Z,69.74
2022-08-05T01:14:44.919Z,70.23
2022-08-05T01:15:36.831Z,69.69
2022-08-05T01:16:14.533Z,69.33
2022-08-05T01:16:56.852Z,69.51
2022-08-05T01:17:53.822Z,69.76
2022-08-05T01:18:31.694Z,69.88
2022-08-05T01:19:19.740Z,69.09
2022-08-05T01:20:09.860Z,69.96
2022-08-05T01:21:01.661Z,69.64
2022-08-05T01:22:07.995Z,69.75
2022-08-05T01:22:59.455Z,69.58
2022-08-05T01:24:14.094Z,69.45
2022-08-05T01:24:51.871Z,70.53
2022-08-05T01:28:35.707Z,70.47
2022-08-05T01:29:23.177Z,70.39
2022-08-05T01:30:02.426Z,69.85
2022-08-05T01:30:55.319Z,70.59
2022-08-05T01:31:44.738Z,69.59
2022-08-05T01:32:21.663Z,69.95
2022-08-05T01:32:56.416Z,70.51
2022-08-05T01:33:48.914Z,70.38
2022-08-05T01:34:31.144Z,70.50
2022-08-05T01:35:10.688Z,69.75
2022-08-05T01:35:51.086Z,70.10
2022-08-05T01:36:29.211Z,70.90
2022-08-05T01:37:09.891Z,70.18
2022-08-05T01:37:59.124Z,69.97
2022-08-05T01:38:33.000Z,70.46
2022-08-05T01:39:04.456Z,69.88
2022-08-05T01:39:46.594Z,69.95
2022-08-05T01:40:28.007Z,70.58
2022-08-05T01:41:01.898Z,70.89
2022-08-05T01:41:37.579Z,70.79
2022-08-05T01:42:13.669Z,71.06
2022-08-05T01:42:47.186Z,70.82
2022-08-05T01:43:22.426Z,69.63
2022-08-05T01:43:56.671Z,70.81
2022-08-05T01:44:34.286Z,70.18
2022-08-05T01:45:26.491Z,70.45
2022-08-05T01:46:16.450Z,70.70
2022-08-05T01:47:00.237Z,69.80
2022-08-05T01:47:39.277Z,70.17
2022-08-05T01:48:12.317Z,70.13
2022-08-05T01:48:49.791Z,70.46
2022-08-05T01:49:24.899Z,70.70
2022-08-05T01:50:02.007Z,70.48
2022-08-05T01:50:39.963Z,71.06
2022-08-05T01:51:13.041Z,70.44
2022-08-05T01:51:51.909Z,70.92
2022-08-05T01:52:25.296Z,70.84
2022-08-05T01:53:01.659Z,70.93
2022-08-05T01:53:54.805Z,70.81
2022-08-05T01:54:32.760Z,71.10
2022-08-05T01:55:08.598Z,71.18
2022-08-05T01:55:43.775Z,70.87
2022-08-05T01:58:10.036Z,70.78
2022-08-05T01:58:12.157Z,70.93
2022-08-05T01:58:40.690Z,71.12
2022-08-05T01:59:35.091Z,70.59
2022-08-05T02:00:11.731Z,70.97
2022-08-05T02:00:49.043Z,70.56
2022-08-05T02:01:24.705Z,71.13
2022-08-05T02:01:59.747Z,70.52
2022-08-05T02:02:33.952Z,70.75
2022-08-05T02:03:29.103Z,70.89
2022-08-05T02:04:05.285Z,70.42
2022-08-05T02:04:40.546Z,70.80
2022-08-05T02:05:13.507Z,71.58
2022-08-05T02:06:33.213Z,71.39
2022-08-05T02:07:03.393Z,71.03
2022-08-05T02:07:36.895Z,70.79
2022-08-05T02:08:30.830Z,70.55
2022-08-05T02:09:04.606Z,71.19
2022-08-05T02:10:31.843Z,70.71
2022-08-05T02:11:14.051Z,71.73
2022-08-05T02:12:06.827Z,71.31
2022-08-05T02:12:55.725Z,70.78
2022-08-05T02:13:36.594Z,71.22
2022-08-05T02:14:32.019Z,70.74
2022-08-05T02:15:12.702Z,71.72
2022-08-05T02:15:50.246Z,70.55
2022-08-05T02:16:53.167Z,71.02
2022-08-05T02:18:28.384Z,70.89
2022-08-05T02:18:43.916Z,71.52
2022-08-05T02:19:47.048Z,71.13
2022-08-05T02:20:23.290Z,71.61
2022-08-05T02:21:03.259Z,71.22
2022-08-05T02:21:46.843Z,71.64
2022-08-05T02:22:29.717Z,71.28
2022-08-05T02:23:05.541Z,71.49
2022-08-05T02:23:42.155Z,71.06
2022-08-05T02:24:23.027Z,71.15
2022-08-05T02:25:08.518Z,71.07
2022-08-05T02:25:50.227Z,70.97
2022-08-05T02:26:33.092Z,71.92
2022-08-05T02:27:10.001Z,71.91
2022-08-05T02:27:58.601Z,72.19
2022-08-05T02:28:38.446Z,71.60
2022-08-05T02:29:21.606Z,71.50
2022-08-05T02:30:01.113Z,71.41
2022-08-05T02:30:54.080Z,72.20
2022-08-05T02:31:34.909Z,72.14
2022-08-05T02:32:09.457Z,71.67
2022-08-05T02:32:48.004Z,72.44
2022-08-05T02:33:24.514Z,72.29
2022-08-05T02:34:13.826Z,71.63
2022-08-05T02:34:46.163Z,72.53
2022-08-05T02:35:33.406Z,72.43
2022-08-05T02:36:13.560Z,72.52
2022-08-05T02:36:57.515Z,71.72
2022-08-05T02:37:32.475Z,72.32
2022-08-05T02:38:05.031Z,71.76
2022-08-05T02:38:42.903Z,72.09
2022-08-05T02:39:17.973Z,71.51
2022-08-05T02:39:53.878Z,72.04
2022-08-05T02:41:17.953Z,72.51
2022-08-05T02:41:58.183Z,72.44
2022-08-05T02:42:36.168Z,72.58
2022-08-05T02:43:09.168Z,72.38
2022-08-05T02:44:02.307Z,72.03
2022-08-05T02:44:56.215Z,71.85
2022-08-05T02:46:20.252Z,71.63
2022-08-05T02:47:01.221Z,72.44
2022-08-05T02:48:06.998Z,72.20
2022-08-05T02:48:46.739Z,72.59
2022-08-05T02:49:21.992Z,71.64
2022-08-05T02:49:54.240Z,71.33
2022-08-05T02:51:18.270Z,72.07
2022-08-05T02:52:37.309Z,71.75
2022-08-05T02:53:18.689Z,71.90
2022-08-05T02:53:54.762Z,72.19
2022-08-05T02:54:50.781Z,72.24
2022-08-05T02:55:52.228Z,72.32
2022-08-05T02:56:18.747Z,72.07
2022-08-05T02:58:11.016Z,72.92
2022-08-05T02:58:20.022Z,72.79
2022-08-05T02:58:44.963Z,73.63
2022-08-05T02:59:27.002Z,73.25
2022-08-05T02:59:59.559Z,73.77
2022-08-05T03:00:32.276Z,73.39
2022-08-05T03:01:04.884Z,73.73
2022-08-05T03:01:40.254Z,73.36
2022-08-05T03:02:15.832Z,73.61
2022-08-05T03:02:48.526Z,73.59
2022-08-05T03:03:23.555Z,72.82
2022-08-05T03:04:11.931Z,72.93
2022-08-05T03:04:48.895Z,73.05
2022-08-05T03:06:54.187Z,72.91
2022-08-05T03:06:56.563Z,73.48
2022-08-05T03:07:09.944Z,72.49
2022-08-05T03:08:08.572Z,72.74
2022-08-05T03:08:42.648Z,72.11
2022-08-05T03:09:15.774Z,72.76
2022-08-05T03:09:51.659Z,73.08
2022-08-05T03:10:25.278Z,73.07
2022-08-05T03:11:02.350Z,72.19
2022-08-05T03:11:54.822Z,72.59
2022-08-05T03:12:36.718Z,71.93
2022-08-05T03:13:16.811Z,73.16
2022-08-05T03:13:52.005Z,73.27
2022-08-05T03:14:34.979Z,72.95
2022-08-05T03:15:17.249Z,73.34
2022-08-05T03:15:48.627Z,72.99
2022-08-05T03:16:23.251Z,73.14
2022-08-05T03:16:55.490Z,73.05
2022-08-05T03:17:27.563Z,73.08
2022-08-05T03:17:59.976Z,72.54
2022-08-05T03:18:31.319Z,72.55
2022-08-05T03:19:12.964Z,73.16
2022-08-05T03:20:07.226Z,73.04
2022-08-05T03:20:48.618Z,73.29
2022-08-05T03:21:20.396Z,73.53
2022-08-05T03:21:53.179Z,73.16
2022-08-05T03:22:32.250Z,72.59
2022-08-05T03:23:09.357Z,72.81
2022-08-05T03:23:43.479Z,73.00
2022-08-05T03:24:29.296Z,73.21
2022-08-05T03:26:02.663Z,72.49
2022-08-05T03:26:04.941Z,72.91
2022-08-05T03:26:49.489Z,72.45
2022-08-05T03:27:22.004Z,73.30
2022-08-05T03:28:00.174Z,73.18
2022-08-05T03:28:32.504Z,73.77
2022-08-05T03:29:04.617Z,73.50
2022-08-05T03:29:44.759Z,73.63
2022-08-05T03:30:38.329Z,73.30
2022-08-05T03:31:57.193Z,73.74
2022-08-05T03:32:30.851Z,73.07
2022-08-05T03:33:53.556Z,73.72
2022-08-05T03:34:27.064Z,73.02
2022-08-05T03:34:59.431Z,73.91
2022-08-05T03:35:33.837Z,73.73
2022-08-05T03:36:30.202Z,73.79
2022-08-05T03:37:03.279Z,73.43
2022-08-05T03:37:41.661Z,73.10
2022-08-05T03:38:17.857Z,72.98
2022-08-05T03:40:01.466Z,73.14
2022-08-05T03:40:33.450Z,73.60
2022-08-05T03:41:10.794Z,73.15
2022-08-05T03:41:45.386Z,73.50
2022-08-05T03:42:18.350Z,73.01
2022-08-05T03:42:52.217Z,73.12
2022-08-05T03:44:08.996Z,73.14
2022-08-05T03:44:19.989Z,72.89
2022-08-05T03:44:51.513Z,72.58
2022-08-05T03:45:23.765Z,72.67
2022-08-05T03:45:58.567Z,73.28
2022-08-05T03:46:32.614Z,73.64
2022-08-05T03:47:04.197Z,73.92
2022-08-05T03:47:41.438Z,73.54
2022-08-05T03:48:13.933Z,73.01
2022-08-05T03:48:53.303Z,73.24
2022-08-05T03:49:31.125Z,72.61
2022-08-05T03:50:17.038Z,72.78
2022-08-05T03:52:37.866Z,73.37
2022-08-05T03:52:48.366Z,72.64
2022-08-05T03:55:52.424Z,72.92
2022-08-05T03:55:53.225Z,73.30
2022-08-05T03:56:09.947Z,73.42
2022-08-05T03:56:26.910Z,73.06
2022-08-05T03:57:16.362Z,74.25
2022-08-05T03:57:52.669Z,73.61
2022-08-05T03:58:29.346Z,74.40
2022-08-05T03:59:04.052Z,73.40
2022-08-05T03:59:47.723Z,73.75
2022-08-05T04:00:31.317Z,74.19
2022-08-05T04:01:04.791Z,73.20
2022-08-05T04:01:42.300Z,73.98
2022-08-05T04:02:38.646Z,74.24
2022-08-05T04:03:26.691Z,74.27
2022-08-05T04:04:09.391Z,74.42
2022-08-05T04:04:43.549Z,74.41
2022-08-05T04:05:36.318Z,73.29
2022-08-05T04:06:10.280Z,73.86
2022-08-05T04:06:47.365Z,73.86
2022-08-05T04:07:19.491Z,74.05
2022-08-05T04:07:58.601Z,73.60
2022-08-05T04:08:36.371Z,74.54
2022-08-05T04:09:09.191Z,73.68
2022-08-05T04:09:53.539Z,74.26
2022-08-05T04:10:32.052Z,74.09
2022-08-05T04:11:08.423Z,72.97
2022-08-05T04:11:47.722Z,73.95
2022-08-05T04:12:23.516Z,73.55
2022-08-05T04:12:58.771Z,73.71
2022-08-05T04:13:50.246Z,74.58
2022-08-05T04:14:30.646Z,74.26
2022-08-05T04:15:02.728Z,73.20
2022-08-05T04:15:36.083Z,74.31
2022-08-05T04:16:09.436Z,73.51
2022-08-05T04:16:47.464Z,74.36
2022-08-05T04:17:19.056Z,73.63
2022-08-05T04:17:57.223Z,74.05
2022-08-05T04:18:28.931Z,74.52
2022-08-05T04:19:02.696Z,73.80
2022-08-05T04:19:44.312Z,74.16
2022-08-05T04:20:21.379Z,74.23
2022-08-05T04:20:55.828Z,74.50
2022-08-05T04:22:08.715Z,73.81
2022-08-05T04:22:20.423Z,74.41
2022-08-05T04:22:52.642Z,74.24
2022-08-05T04:24:05.496Z,74.47
2022-08-05T04:24:19.502Z,73.67
2022-08-05T04:25:12.525Z,74.08
2022-08-05T04:25:57.058Z,74.59
2022-08-05T04:26:32.371Z,74.43
2022-08-05T04:27:04.210Z,74.03
2022-08-05T04:27:41.703Z,74.04
2022-08-05T04:28:15.404Z,74.63
2022-08-05T04:28:51.995Z,74.28
2022-08-05T04:29:23.532Z,74.57
2022-08-05T04:29:54.867Z,74.37
2022-08-05T04:30:26.573Z,74.47
2022-08-05T04:30:58.683Z,74.63
2022-08-05T04:31:38.382Z,75.07
2022-08-05T04:32:10.894Z,74.01
2022-08-05T04:32:42.371Z,74.50
2022-08-05T04:33:15.224Z,74.69
2022-08-05T04:34:19.302Z,74.35
2022-08-05T04:34:42.640Z,74.43
2022-08-05T04:35:19.370Z,74.35
2022-08-05T04:36:15.656Z,74.87
2022-08-05T04:36:46.610Z,74.37
2022-08-05T04:37:21.835Z,74.38
2022-08-05T04:38:15.436Z,74.58
2022-08-05T04:38:51.070Z,74.14
2022-08-05T04:40:12.608Z,73.85
2022-08-05T04:40:50.549Z,74.59
2022-08-05T04:41:22.215Z,74.84
2022-08-05T04:42:09.248Z,73.79
2022-08-05T04:42:40.672Z,74.21
2022-08-05T04:43:16.618Z,74.52
2022-08-05T04:43:52.794Z,74.60
2022-08-05T04:44:29.303Z,73.94
2022-08-05T04:45:01.772Z,74.40
2022-08-05T04:45:54.982Z,74.11
2022-08-05T04:46:28.258Z,74.09
2022-08-05T04:47:08.830Z,74.21
2022-08-05T04:47:42.967Z,74.66
2022-08-05T04:48:27.262Z,74.36
2022-08-05T04:48:59.572Z,74.21
2022-08-05T04:49:39.212Z,73.07
2022-08-05T04:50:34.441Z,73.71
2022-08-05T04:51:11.132Z,73.46
2022-08-05T04:51:44.010Z,73.22
2022-08-05T04:52:15.699Z,73.77
2022-08-05T04:52:47.047Z,74.00
2022-08-05T04:53:21.272Z,73.83
2022-08-05T04:53:52.645Z,73.88
2022-08-05T04:54:27.054Z,73.65
2022-08-05T04:54:59.583Z,73.30
2022-08-05T04:56:33.983Z,73.83
2022-08-05T04:56:37.961Z,73.62
2022-08-05T04:57:09.452Z,74.07
2022-08-05T04:57:40.794Z,73.43
2022-08-05T04:58:21.593Z,73.59
2022-08-05T04:58:53.209Z,73.64
2022-08-05T04:59:36.782Z,73.50
2022-08-05T05:00:11.591Z,73.99
2022-08-05T05:00:45.402Z,74.05
2022-08-05T05:02:08.196Z,73.61
2022-08-05T05:02:37.314Z,73.82
2022-08-05T05:03:06.024Z,73.64
2022-08-05T05:03:41.982Z,73.75
2022-08-05T05:04:14.264Z,73.92
2022-08-05T05:04:49.671Z,74.35
2022-08-05T05:05:28.280Z,74.68
2022-08-05T05:06:38.656Z,74.21
2022-08-05T05:06:57.402Z,74.06
2022-08-05T05:07:32.298Z,73.31
2022-08-05T05:08:14.303Z,73.23
2022-08-05T05:08:58.158Z,73.15
2022-08-05T05:09:32.048Z,73.80
2022-08-05T05:10:06.364Z,74.02
2022-08-05T05:10:55.972Z,73.54
2022-08-05T05:11:41.532Z,73.79
2022-08-05T05:13:09.640Z,73.56
2022-08-05T05:13:44.799Z,73.72
2022-08-05T05:14:16.393Z,73.97
2022-08-05T05:14:50.502Z,73.95
2022-08-05T05:15:57.364Z,74.30
2022-08-05T05:16:14.278Z,73.64
2022-08-05T05:16:46.900Z,74.32
2022-08-05T05:17:56.399Z,73.80
2022-08-05T05:18:33.391Z,73.97
2022-08-05T05:19:18.577Z,74.34
2022-08-05T05:19:54.977Z,74.22
2022-08-05T05:20:28.380Z,74.33
2022-08-05T05:21:00.396Z,73.46
2022-08-05T05:21:33.120Z,74.28
2022-08-05T05:22:24.301Z,73.67
2022-08-05T05:22:57.662Z,73.95
2022-08-05T05:23:39.023Z,73.70
2022-08-05T05:24:21.665Z,73.34
2022-08-05T05:24:57.713Z,73.38
2022-08-05T05:25:40.462Z,73.76
2022-08-05T05:26:12.429Z,73.61
2022-08-05T05:27:02.611Z,73.38
2022-08-05T05:27:55.860Z,73.84
2022-08-05T05:28:27.596Z,73.99
2022-08-05T05:29:00.676Z,73.98
2022-08-05T05:30:03.460Z,74.32
2022-08-05T05:30:29.358Z,74.34
2022-08-05T05:31:02.102Z,74.47
2022-08-05T05:32:07.507Z,74.24
2022-08-05T05:32:44.120Z,73.93
2022-08-05T05:33:17.842Z,74.19
2022-08-05T05:33:59.452Z,74.09
2022-08-05T05:34:33.127Z,74.10
2022-08-05T05:35:04.767Z,73.83
2022-08-05T05:35:38.083Z,74.06
2022-08-05T05:36:14.635Z,73.87
2022-08-05T05:36:47.192Z,73.62
2022-08-05T05:37:22.701Z,73.63
2022-08-05T05:38:09.488Z,74.05
2022-08-05T05:38:44.980Z,74.34
2022-08-05T05:39:19.347Z,73.75
2022-08-05T05:39:51.108Z,74.36
2022-08-05T05:40:49.762Z,73.64
2022-08-05T05:41:22.850Z,73.91
2022-08-05T05:41:55.320Z,73.65
2022-08-05T05:42:26.672Z,73.84
2022-08-05T05:42:59.248Z,74.35
2022-08-05T05:43:58.598Z,74.79
2022-08-05T05:44:37.755Z,74.43
2022-08-05T05:45:14.059Z,74.04
2022-08-05T05:45:48.246Z,74.45
2022-08-05T05:46:19.887Z,74.23
2022-08-05T05:46:53.296Z,74.17
2022-08-05T05:47:30.317Z,74.08
2022-08-05T05:48:16.274Z,74.27
2022-08-05T05:48:48.493Z,74.58
2022-08-05T05:49:38.769Z,74.59
2022-08-05T05:50:16.429Z,74.64
2022-08-05T05:50:52.370Z,73.88
2022-08-05T05:51:25.876Z,73.94
2022-08-05T05:51:59.331Z,74.25
2022-08-05T05:52:34.654Z,73.61
2022-08-05T05:53:21.947Z,73.98
2022-08-05T05:54:50.312Z,74.08
2022-08-05T05:55:22.531Z,73.42
2022-08-05T05:56:00.858Z,73.52
2022-08-05T05:56:35.018Z,74.00
2022-08-05T05:57:06.407Z,74.38
2022-08-05T05:57:52.315Z,73.62
2022-08-05T05:58:30.159Z,73.42
2022-08-05T05:59:07.755Z,73.84
2022-08-05T05:59:40.296Z,74.04
2022-08-05T06:00:18.065Z,73.91
2022-08-05T06:00:49.470Z,72.99
2022-08-05T06:01:23.449Z,72.66
2022-08-05T06:01:57.534Z,73.35
2022-08-05T06:02:36.703Z,73.01
2022-08-05T06:03:40.799Z,73.59
2022-08-05T06:04:03.543Z,72.89
2022-08-05T06:04:35.267Z,73.16
2022-08-05T06:05:10.387Z,73.17
2022-08-05T06:05:53.927Z,73.51
2022-08-05T06:06:27.712Z,72.91
2022-08-05T06:07:01.581Z,73.11
2022-08-05T06:07:41.851Z,73.53
2022-08-05T06:08:13.815Z,72.55
2022-08-05T06:09:07.640Z,72.74
2022-08-05T06:09:59.972Z,72.31
2022-08-05T06:10:52.406Z,73.39
2022-08-05T06:11:24.266Z,72.66
2022-08-05T06:12:01.713Z,72.17
2022-08-05T06:12:35.240Z,72.94
2022-08-05T06:13:13.573Z,72.72
2022-08-05T06:13:53.616Z,72.11
2022-08-05T06:14:28.043Z,71.29
2022-08-05T06:15:01.345Z,72.11
2022-08-05T06:16:28.239Z,71.61
2022-08-05T06:16:42.867Z,71.97
2022-08-05T06:17:22.227Z,72.25
2022-08-05T06:18:06.684Z,71.41
2022-08-05T06:18:39.434Z,71.55
2022-08-05T06:19:34.882Z,71.30
2022-08-05T06:20:08.806Z,72.10
2022-08-05T06:20:50.131Z,72.44
2022-08-05T06:21:36.866Z,72.23
2022-08-05T06:22:09.383Z,72.19
2022-08-05T06:22:40.782Z,71.38
2022-08-05T06:23:13.795Z,71.33
2022-08-05T06:23:46.207Z,71.17
2022-08-05T06:24:25.732Z,71.09
2022-08-05T06:24:59.199Z,69.96
2022-08-05T06:26:13.360Z,70.06
2022-08-05T06:26:24.961Z,69.83
2022-08-05T06:26:56.514Z,70.34
2022-08-05T06:28:09.480Z,70.80
2022-08-05T06:28:21.088Z,70.67
2022-08-05T06:28:53.422Z,70.67
2022-08-05T06:29:49.538Z,70.66
2022-08-05T06:30:17.707Z,70.70
2022-08-05T06:30:52.301Z,70.63
2022-08-05T06:31:42.304Z,69.41
2022-08-05T06:32:21.373Z,69.93
2022-08-05T06:32:57.187Z,69.52
2022-08-05T06:33:33.144Z,68.70
2022-08-05T06:34:20.401Z,68.42
2022-08-05T06:34:53.630Z,68.28
2022-08-05T06:36:03.508Z,68.10
2022-08-05T06:36:18.846Z,68.80
2022-08-05T06:36:58.712Z,69.66
2022-08-05T06:37:56.390Z,68.33
2022-08-05T06:38:35.867Z,68.70
2022-08-05T06:39:08.417Z,67.49
2022-08-05T06:39:40.315Z,68.05
2022-08-05T06:40:13.872Z,68.40
2022-08-05T06:40:49.388Z,68.33
2022-08-05T06:41:21.572Z,68.46
2022-08-05T06:41:53.812Z,69.04
2022-08-05T06:42:25.326Z,69.58
2022-08-05T06:42:56.762Z,68.68
2022-08-05T06:43:59.266Z,68.13
2022-08-05T06:44:19.444Z,67.03
2022-08-05T06:44:53.455Z,68.16
2022-08-05T06:45:45.136Z,68.39
2022-08-05T06:46:16.321Z,66.86
2022-08-05T06:47:06.551Z,67.60
2022-08-05T06:48:36.411Z,67.07
2022-08-05T06:48:54.511Z,66.86
2022-08-05T06:50:00.849Z,67.91
2022-08-05T06:50:17.974Z,67.82
2022-08-05T06:50:49.879Z,68.07
2022-08-05T06:51:29.558Z,68.08
2022-08-05T06:52:01.673Z,67.81
2022-08-05T06:52:37.844Z,66.63
2022-08-05T06:53:27.712Z,67.76
2022-08-05T06:54:03.227Z,67.36
2022-08-05T06:54:34.683Z,66.83
2022-08-05T06:55:07.799Z,66.40
2022-08-05T06:55:42.014Z,67.16
2022-08-05T06:56:26.276Z,67.52
2022-08-05T06:57:57.632Z,67.70
2022-08-05T06:58:03.423Z,66.86
2022-08-05T06:58:41.381Z,66.01
2022-08-05T06:59:18.084Z,65.18
2022-08-05T06:59:57.953Z,65.91
2022-08-05T07:00:31.236Z,65.98
2022-08-05T07:01:53.367Z,66.73
2022-08-05T07:02:24.770Z,66.29
2022-08-05T07:03:14.674Z,66.61
2022-08-05T07:03:48.097Z,66.17
2022-08-05T07:04:19.514Z,65.15
2022-08-05T07:04:50.884Z,65.56
2022-08-05T07:05:27.663Z,65.40
2022-08-05T07:06:14.422Z,65.21
2022-08-05T07:06:46.656Z,65.93
2022-08-05T07:07:24.237Z,66.71
2022-08-05T07:08:11.007Z,66.52
2022-08-05T07:08:47.988Z,66.49
2022-08-05T07:09:24.947Z,65.29
2022-08-05T07:09:58.506Z,65.76
2022-08-05T07:10:32.507Z,65.09
2022-08-05T07:11:05.161Z,65.02
2022-08-05T07:11:36.830Z,64.70
2022-08-05T07:12:29.198Z,65.34
2022-08-05T07:13:56.662Z,64.74
2022-08-05T07:14:29.932Z,66.64
2022-08-05T07:15:34.761Z,66.00
2022-08-05T07:18:00.162Z,65.25
2022-08-05T07:18:07.024Z,66.06
2022-08-05T07:18:20.404Z,65.78
2022-08-05T07:19:00.698Z,65.70
2022-08-05T07:20:34.082Z,64.72
2022-08-05T07:21:08.581Z,65.48
2022-08-05T07:22:00.216Z,65.42
2022-08-05T07:22:31.887Z,64.73
2022-08-05T07:23:04.588Z,64.08
2022-08-05T07:23:54.264Z,64.63
2022-08-05T07:24:25.676Z,64.18
2022-08-05T07:25:23.486Z,64.74
2022-08-05T07:25:56.147Z,65.79
2022-08-05T07:26:28.143Z,65.26
2022-08-05T07:26:59.951Z,66.03
2022-08-05T07:27:56.704Z,66.19
2022-08-05T07:28:26.227Z,65.75
2022-08-05T07:28:57.594Z,65.46
2022-08-05T07:30:27.181Z,64.60
2022-08-05T07:30:28.171Z,65.50
2022-08-05T07:30:59.668Z,64.36
2022-08-05T07:31:40.786Z,65.17
2022-08-05T07:32:26.376Z,63.65
2022-08-05T07:32:57.800Z,63.36
2022-08-05T07:33:36.792Z,62.86
2022-08-05T07:34:09.019Z,63.03
2022-08-05T07:34:45.335Z,62.34
2022-08-05T07:36:03.388Z,62.54
2022-08-05T07:36:21.150Z,63.66
2022-08-05T07:36:52.992Z,63.79
2022-08-05T07:37:35.965Z,63.13
2022-08-05T07:38:12.284Z,63.82
2022-08-05T07:38:54.752Z,63.79
2022-08-05T07:40:25.926Z,62.10
2022-08-05T07:40:31.377Z,62.84
2022-08-05T07:42:13.795Z,63.79
2022-08-05T07:42:45.812Z,65.20
2022-08-05T07:43:20.597Z,63.78
2022-08-05T07:43:53.343Z,62.11
2022-08-05T07:44:27.685Z,62.32
2022-08-05T07:45:00.544Z,62.08
2022-08-05T07:45:57.354Z,61.05
2022-08-05T07:46:30.676Z,59.33
2022-08-05T07:47:02.173Z,59.83
2022-08-05T07:47:57.891Z,59.73
2022-08-05T07:49:01.586Z,59.65
2022-08-05T07:49:21.695Z,58.88
2022-08-05T07:49:54.160Z,58.60
2022-08-05T07:50:32.457Z,58.03
2022-08-05T07:51:04.903Z,57.80
2022-08-05T07:51:55.180Z,58.68
2022-08-05T07:52:26.708Z,58.93
2022-08-05T07:52:58.083Z,59.30
2022-08-05T07:54:19.014Z,59.01
2022-08-05T07:54:50.517Z,57.17
2022-08-05T07:56:04.876Z,57.73
2022-08-05T07:56:49.018Z,56.61
2022-08-05T07:57:22.694Z,56.15
2022-08-05T07:58:58.644Z,55.94
2022-08-05T07:59:09.272Z,56.49
2022-08-05T07:59:41.372Z,56.91
2022-08-05T08:00:14.680Z,56.84
2022-08-05T08:00:46.643Z,57.40
2022-08-05T08:01:36.785Z,57.10
2022-08-05T08:02:30.967Z,56.70
2022-08-05T08:03:14.984Z,57.58
2022-08-05T08:03:47.105Z,56.65
2022-08-05T08:04:37.667Z,57.93
2022-08-05T08:05:10.012Z,57.79
2022-08-05T08:06:02.536Z,57.80
2022-08-05T08:06:52.370Z,56.44
2022-08-05T08:07:24.101Z,56.52
2022-08-05T08:07:59.535Z,55.82
2022-08-05T08:08:31.731Z,55.83
2022-08-05T08:09:03.944Z,56.10
2022-08-05T08:09:37.433Z,55.35
2022-08-05T08:10:27.885Z,55.88
2022-08-05T08:11:00.560Z,54.56
2022-08-05T08:11:48.230Z,52.49
2022-08-05T08:12:37.054Z,52.61
2022-08-05T08:13:11.635Z,52.67
2022-08-05T08:13:49.509Z,52.86
2022-08-05T08:14:32.291Z,53.21
2022-08-05T08:15:04.399Z,53.79
2022-08-05T08:16:33.736Z,53.49
2022-08-05T08:16:34.808Z,52.71
2022-08-05T08:17:21.526Z,53.88
2022-08-05T08:17:53.245Z,53.65
2022-08-05T08:18:24.635Z,52.17
2022-08-05T08:18:56.222Z,52.72
2022-08-05T08:20:22.308Z,53.14
2022-08-05T08:21:00.266Z,52.62
2022-08-05T08:21:17.613Z,53.11
2022-08-05T08:21:49.241Z,53.37
2022-08-05T08:22:27.060Z,53.16
2022-08-05T08:22:59.943Z,54.44
2022-08-05T08:24:03.054Z,54.39
2022-08-05T08:24:51.061Z,54.52
2022-08-05T08:25:18.191Z,53.91
2022-08-05T08:26:17.535Z,52.24
2022-08-05T08:26:59.233Z,52.74
2022-08-05T08:27:40.065Z,53.00
2022-08-05T08:28:36.586Z,53.97
2022-08-05T08:29:29.431Z,52.86
2022-08-05T08:30:29.744Z,51.91
2022-08-05T08:31:14.587Z,52.77
2022-08-05T08:31:49.565Z,51.88
2022-08-05T08:32:28.401Z,53.05
2022-08-05T08:33:04.432Z,52.37
2022-08-05T08:33:38.649Z,52.92
2022-08-05T08:34:13.490Z,52.66
2022-08-05T08:34:45.124Z,53.85
2022-08-05T08:35:18.302Z,53.92
2022-08-05T08:35:55.994Z,54.06
2022-08-05T08:36:51.899Z,53.94
2022-08-05T08:37:27.880Z,53.91
2022-08-05T08:37:59.669Z,53.74
2022-08-05T08:38:35.470Z,53.99
2022-08-05T08:39:15.493Z,53.90
2022-08-05T08:39:49.515Z,53.66
2022-08-05T08:40:21.516Z,54.24
2022-08-05T08:40:56.504Z,53.29
2022-08-05T08:41:51.914Z,53.38
2022-08-05T08:42:34.289Z,53.32
2022-08-05T08:44:56.448Z,52.30
2022-08-05T08:45:21.153Z,53.43
2022-08-05T08:45:25.092Z,52.07
2022-08-05T08:45:57.897Z,53.42
2022-08-05T08:46:31.752Z,52.20
2022-08-05T08:47:04.123Z,52.55
2022-08-05T08:48:06.746Z,51.95
2022-08-05T08:49:07.777Z,51.48
2022-08-05T08:50:23.111Z,52.17
2022-08-05T08:51:22.390Z,52.15
2022-08-05T08:52:03.147Z,53.12
2022-08-05T08:52:32.135Z,51.36
2022-08-05T08:53:08.326Z,52.83
2022-08-05T08:53:45.351Z,53.23
2022-08-05T08:54:17.115Z,54.43
2022-08-05T08:54:52.587Z,54.08